Mudah untuk digunakan

vPilot, dan Squawkbox

VATSIM memiliki 3 pilot client yang berbeda. Semuanya memberikan kemudahan yang sama bagi pengguna untuk online ke dalam simulasi VATSIM. Semuanya memiliki panduan yang lengkap untuk membantu Anda menggunakan aplikasi ini.

Radar client yang seperti aslinya

EuroScope & VRC

VATSIM memiliki radar client yang sangat advanced karena mensimulasikan secara nyata bagaimana seorang ATC didunia nyata. Walaupun dikatakan advanced, kedua radar client ini sangat mudah untuk digunakan. Dan hal menarik lainnya, VATSIM menggunakan ATIS dalam bentuk suara!

Dengan VATSIM, Anda dapat belajar lebih banyak tentang aviasi.
Anda juga dapat berdiskusi dengan pencinta aviasi lainnya.

Pengalaman Yang Tidak Terlupakan

Aktifitas Terkini

Tidak ada ATC yang online!

Pilot

Callsign Nama Rute
AXM501Ryan (1462749)WSSS-WADD
GIA290Raia Arsya WALL (1368718)WIII-WARA
SIA7441454028 WSSS (1454028)WSSS-WADD

*Informasi ini bisa saja tidak mutakhir.

METAR

Nama Bandara - Lokasi (ICAO) METAR
Sultan Hasanuddin - Makassar (WAAA)METAR WAAA 122030Z AUTO 11002KT 9999 SCT013 SCT027 BKN035 24/24 Q1009=
I Gusti Ngurah Rai - Denpasar (WADD)METAR WADD 122030Z 33004KT 9999 SCT017 27/24 Q1009|NOSIG=
Aji Pangeran Tumenggung Pranoto - Samarinda (WALS)METAR WALS 122030Z AUTO 33006KT //// ////// 23/23 Q1010=
Soekarno Hatta - Jakarta (WIII)METAR WIII 122030Z VRB04KT 2500 BR SCT020 25/23 Q1009|NOSIG=
Halim Perdana Kusuma - Jakarta (WIHH)Tidak ada METAR untuk Halim Perdana Kusuma - Jakarta
Kualanamu International Airport - Deli Serdang (WIMM)METAR WIMM 121900Z 26004KT 4000 BR SCT017 25/25 Q1010|NOSIG=

*METAR didapatkan dari BMKG. Informasi ini bisa saja tidak mutakhir.

VATSIM Indonesia vACC VATSIM South East Asia VATSIM Asia